LYVA weather

Divci Airport
Valjevo, Kolubara, Serbia

Public forecast

Using degrees Celsius for public forecast. Weather courtesy of forecast.io.

METAR (pilot weather report)

Closest report is Belgrade Nikola Tesla Airport, 33.6 nm (62.2 km) NNE. Retrieved 2019/06/19 22:30 UTC (4 minutes ago):

LYBE 192230Z 17003KT CAVOK 22/19 Q1012 NOSIG

TAF (pilot weather forecast)

Closest forecast is Belgrade Nikola Tesla Airport, 33.6 nm (62.2 km) NNE. Retrieved 2019/06/19 18:20 UTC (4 hours ago):

TAF LYBE 191700Z 1918/2018 12006KT 9999 SCT035 TX28/2013Z TN18/2003Z PROB40 TEMPO 1918/1920 14015G25KT 3000 TSRA SCT030CB SCT033 PROB40 TEMPO 2000/2003 4000 TSRA FEW027CB SCT033 TEMPO 2003/2005 2000 BR BKN007 TEMPO 2010/2016 VRB15G30KT 3000 TSRA SCT030CB SCT033